Welcome to Northern Hawkes Bay. New Zealand.
PWS Header
      nz Flag



Hit Counter


W3C Valid W3C Valid logo


    Wairoa

Select any of the Stations below to visit their websites.










Historic Data from Weather Underground
Select the location of interest below. Wairoa is the default. Please have patience, this Data is slow to load in.
Northern Hawkes Bay Historical Data
Daily Summary for June 1, 2017 Units:  Metric    English   Both
« Previous Day
Next Day »
Daily Weekly Monthly Yearly Custom
  High: Low: Average:
Temperature: 13.4 °C 9.2 °C 11.3 °C
Dew Point: 12.3 °C 9.0 °C 10.4 °C
Humidity: 99% 82% 94%
Wind Speed: 13.4km/h 0.0km/h 4.4km/h
Wind Gust: 20.9km/h - -
Wind- - WSW
Pressure: 1019.2 hPa 1016.1 hPa -
Precipitation: 2.3 mm    
Historical Graphs
 
 
Tabular Data for June 1, 2017
Time Temperature Dew Point Pressure Wind Wind Speed Wind Gust Humidity Rainfall Rate (Hourly) solar
00:02 9.2 °C 9.1 °C 1016.1 hPa NNW 1.1 km/h 5.0 km/h 99% 0.0 mm 0 W/m2
00:07 9.2 °C 9.1 °C 1016.1 hPa NNW 2.6 km/h 7.2 km/h 99% 0.0 mm 0 W/m2
00:12 9.3 °C 9.2 °C 1016.1 hPa NNW 2.6 km/h 7.2 km/h 99% 0.0 mm 0 W/m2
00:17 9.2 °C 9.1 °C 1016.1 hPa NNW 2.6 km/h 5.0 km/h 99% 0.0 mm 0 W/m2
00:22 9.3 °C 9.2 °C 1016.1 hPa NNW 1.1 km/h 6.1 km/h 99% 0.0 mm 0 W/m2
00:27 9.3 °C 9.2 °C 1016.1 hPa NNW 1.1 km/h 6.1 km/h 99% 0.0 mm 0 W/m2
00:35 9.3 °C 9.2 °C 1016.1 hPa NNW 3.5 km/h 6.1 km/h 99% 0.0 mm 0 W/m2
00:40 9.3 °C 9.2 °C 1016.5 hPa NNW 2.6 km/h 7.2 km/h 99% 0.0 mm 0 W/m2
00:45 9.4 °C 9.3 °C 1016.1 hPa NNW 2.6 km/h 8.7 km/h 99% 0.0 mm 0 W/m2
00:50 9.4 °C 9.3 °C 1016.1 hPa NNW 2.6 km/h 8.7 km/h 99% 0.0 mm 0 W/m2
00:55 9.4 °C 9.3 °C 1016.1 hPa North 2.6 km/h 5.0 km/h 99% 0.0 mm 0 W/m2
01:00 9.4 °C 9.3 °C 1016.1 hPa NNW 1.1 km/h 5.0 km/h 99% 0.0 mm 0 W/m2
01:05 9.4 °C 9.3 °C 1016.1 hPa NNW 6.1 km/h 7.2 km/h 99% 0.0 mm 0 W/m2
01:10 9.4 °C 9.3 °C 1016.1 hPa NNW 5.0 km/h 7.2 km/h 99% 0.0 mm 0 W/m2
01:15 9.4 °C 9.3 °C 1016.1 hPa NNW 6.1 km/h 8.7 km/h 99% 0.0 mm 0 W/m2
01:20 9.5 °C 9.3 °C 1016.1 hPa NNW 5.0 km/h 8.7 km/h 99% 0.0 mm 0 W/m2
01:25 9.5 °C 9.3 °C 1016.1 hPa NNW 2.6 km/h 8.7 km/h 99% 0.0 mm 0 W/m2
01:30 9.5 °C 9.3 °C 1016.1 hPa Calm   7.2 km/h 99% 0.0 mm 0 W/m2
01:35 9.4 °C 9.3 °C 1016.1 hPa North 2.6 km/h 5.0 km/h 99% 0.0 mm 0 W/m2
01:40 9.4 °C 9.3 °C 1016.1 hPa North 1.1 km/h 5.0 km/h 99% 0.0 mm 0 W/m2
01:45 9.4 °C 9.3 °C 1016.1 hPa North 1.1 km/h 5.0 km/h 99% 0.0 mm 0 W/m2
01:50 9.4 °C 9.3 °C 1016.1 hPa NNW 1.1 km/h 5.0 km/h 99% 0.0 mm 0 W/m2
01:55 9.3 °C 9.2 °C 1016.5 hPa NW 1.1 km/h 5.0 km/h 99% 0.0 mm 0 W/m2
02:00 9.3 °C 9.2 °C 1016.1 hPa Calm   5.0 km/h 99% 0.0 mm 0 W/m2
02:06 9.5 °C 9.3 °C 1016.1 hPa WNW 6.1 km/h 9.7 km/h 99% 0.0 mm 0 W/m2
02:11 10.6 °C 10.4 °C 1016.1 hPa WSW 5.0 km/h 9.7 km/h 99% 0.0 mm 0 W/m2
02:16 11.0 °C 10.7 °C 1016.5 hPa WSW 3.5 km/h 13.4 km/h 98% 0.0 mm 0 W/m2
02:21 11.2 °C 10.9 °C 1016.1 hPa WSW 8.7 km/h 13.4 km/h 98% 0.0 mm 0 W/m2
02:26 11.4 °C 11.1 °C 1016.1 hPa WSW 8.7 km/h 12.2 km/h 98% 0.0 mm 0 W/m2
02:31 11.5 °C 11.2 °C 1016.5 hPa WSW 11.1 km/h 14.8 km/h 98% 0.0 mm 0 W/m2
02:36 11.5 °C 11.2 °C 1016.1 hPa WSW 7.2 km/h 14.8 km/h 98% 0.0 mm 0 W/m2
02:41 11.5 °C 11.2 °C 1016.1 hPa WSW 8.7 km/h 14.8 km/h 98% 0.0 mm 0 W/m2
02:44 11.5 °C 11.2 °C 1016.1 hPa West 12.2 km/h 15.8 km/h 98% 0.0 mm 0 W/m2
02:49 11.6 °C 11.3 °C 1016.5 hPa West 7.2 km/h 15.8 km/h 98% 0.0 mm 0 W/m2
02:54 11.6 °C 11.3 °C 1016.1 hPa WSW 11.1 km/h 15.8 km/h 98% 0.0 mm 0 W/m2
02:59 11.6 °C 11.3 °C 1016.1 hPa West 5.0 km/h 15.8 km/h 98% 0.0 mm 0 W/m2
03:04 11.6 °C 11.3 °C 1016.1 hPa West 7.2 km/h 15.8 km/h 98% 0.0 mm 0 W/m2
03:09 11.6 °C 11.2 °C 1016.1 hPa WSW 6.1 km/h 18.3 km/h 97% 0.0 mm 0 W/m2
03:14 11.6 °C 11.2 °C 1016.1 hPa WSW 6.1 km/h 18.3 km/h 97% 0.0 mm 0 W/m2
03:19 11.6 °C 11.0 °C 1016.1 hPa West 7.2 km/h 12.2 km/h 96% 0.0 mm 0 W/m2
03:24 11.6 °C 11.0 °C 1016.1 hPa West 5.0 km/h 13.4 km/h 96% 0.0 mm 0 W/m2
03:29 11.6 °C 10.8 °C 1016.1 hPa West 7.2 km/h 13.4 km/h 95% 0.0 mm 0 W/m2
03:34 11.6 °C 10.8 °C 1016.1 hPa West 3.5 km/h 17.2 km/h 95% 0.0 mm 0 W/m2
03:39 11.6 °C 10.7 °C 1016.1 hPa WSW 2.6 km/h 17.2 km/h 94% 0.0 mm 0 W/m2
03:44 11.5 °C 10.6 °C 1016.1 hPa West 6.1 km/h 8.7 km/h 94% 0.0 mm 0 W/m2
03:49 11.5 °C 10.6 °C 1016.1 hPa West 6.1 km/h 11.1 km/h 94% 0.0 mm 0 W/m2
03:54 11.5 °C 10.6 °C 1016.1 hPa WNW 3.5 km/h 11.1 km/h 94% 0.0 mm 0 W/m2
03:59 11.3 °C 10.2 °C 1016.1 hPa NW 2.6 km/h 11.1 km/h 93% 0.0 mm 0 W/m2
04:04 11.1 °C 10.0 °C 1016.1 hPa NNW 3.5 km/h 6.1 km/h 93% 0.0 mm 0 W/m2
04:09 11.0 °C 9.9 °C 1016.5 hPa NW 1.1 km/h 7.2 km/h 93% 0.0 mm 0 W/m2
04:14 11.0 °C 9.9 °C 1016.1 hPa NW 2.6 km/h 7.2 km/h 93% 0.0 mm 0 W/m2
04:19 11.1 °C 10.2 °C 1016.5 hPa WNW 3.5 km/h 11.1 km/h 94% 0.0 mm 0 W/m2
04:24 11.2 °C 10.3 °C 1016.5 hPa West 7.2 km/h 12.2 km/h 94% 0.0 mm 0 W/m2
04:29 11.3 °C 10.2 °C 1016.5 hPa West 2.6 km/h 12.2 km/h 93% 0.0 mm 0 W/m2
04:35 11.4 °C 10.3 °C 1016.5 hPa West 7.2 km/h 11.1 km/h 93% 0.0 mm 0 W/m2
04:40 11.5 °C 10.4 °C 1016.5 hPa West 3.5 km/h 12.2 km/h 93% 0.0 mm 0 W/m2
04:45 11.6 °C 10.3 °C 1016.5 hPa West 3.5 km/h 12.2 km/h 92% 0.0 mm 0 W/m2
04:50 11.6 °C 10.3 °C 1016.5 hPa West 6.1 km/h 12.2 km/h 92% 0.0 mm 0 W/m2
04:55 11.6 °C 10.3 °C 1016.5 hPa West 6.1 km/h 12.2 km/h 92% 0.0 mm 0 W/m2
05:00 11.6 °C 10.3 °C 1016.5 hPa West 5.0 km/h 11.1 km/h 92% 0.0 mm 0 W/m2
05:05 11.7 °C 10.4 °C 1016.8 hPa WSW 6.1 km/h 11.1 km/h 92% 0.0 mm 0 W/m2
05:10 11.7 °C 10.4 °C 1016.5 hPa West 3.5 km/h 11.1 km/h 92% 0.0 mm 0 W/m2
05:15 11.8 °C 10.6 °C 1016.8 hPa West 5.0 km/h 11.1 km/h 92% 0.0 mm 0 W/m2
05:20 11.8 °C 10.6 °C 1016.8 hPa West 5.0 km/h 11.1 km/h 92% 0.0 mm 0 W/m2
05:26 11.7 °C 10.3 °C 1016.8 hPa West 3.5 km/h 13.4 km/h 91% 0.0 mm 0 W/m2
05:31 11.7 °C 10.3 °C 1016.8 hPa West 11.1 km/h 15.8 km/h 91% 0.0 mm 0 W/m2
05:36 11.7 °C 10.3 °C 1016.8 hPa West 6.1 km/h 15.8 km/h 91% 0.0 mm 0 W/m2
05:41 11.8 °C 10.4 °C 1016.8 hPa West 5.0 km/h 15.8 km/h 91% 0.0 mm 0 W/m2
05:46 11.8 °C 10.4 °C 1017.2 hPa WSW 8.7 km/h 12.2 km/h 91% 0.0 mm 0 W/m2
05:51 11.8 °C 10.4 °C 1017.2 hPa WSW 6.1 km/h 17.2 km/h 91% 0.0 mm 0 W/m2
05:56 11.8 °C 10.4 °C 1017.2 hPa West 13.4 km/h 17.2 km/h 91% 0.0 mm 0 W/m2
06:01 11.8 °C 10.2 °C 1017.2 hPa WNW 7.2 km/h 15.8 km/h 90% 0.0 mm 0 W/m2
06:06 11.8 °C 10.2 °C 1017.2 hPa West 5.0 km/h 17.2 km/h 90% 0.0 mm 0 W/m2
06:11 11.7 °C 10.1 °C 1017.2 hPa WSW 7.2 km/h 17.2 km/h 90% 0.0 mm 0 W/m2
06:16 11.8 °C 10.2 °C 1017.2 hPa WSW 3.5 km/h 15.8 km/h 90% 0.0 mm 0 W/m2
06:21 11.8 °C 10.2 °C 1017.2 hPa WSW 3.5 km/h 15.8 km/h 90% 0.0 mm 0 W/m2
06:26 11.8 °C 10.1 °C 1017.5 hPa West 3.5 km/h 9.7 km/h 89% 0.0 mm 0 W/m2
06:31 11.8 °C 10.1 °C 1017.5 hPa West 3.5 km/h 14.8 km/h 89% 0.0 mm 0 W/m2
06:36 11.8 °C 10.1 °C 1017.2 hPa West 7.2 km/h 15.8 km/h 89% 0.0 mm 0 W/m2
06:41 11.8 °C 10.1 °C 1017.2 hPa West 9.7 km/h 17.2 km/h 89% 0.0 mm 0 W/m2
06:46 11.8 °C 9.9 °C 1017.2 hPa WNW 8.7 km/h 17.2 km/h 88% 0.0 mm 0 W/m2
06:51 11.7 °C 9.8 °C 1017.5 hPa West 13.4 km/h 19.5 km/h 88% 0.0 mm 0 W/m2
06:56 11.8 °C 9.9 °C 1017.2 hPa WSW 11.1 km/h 20.9 km/h 88% 0.0 mm 0 W/m2
07:01 11.8 °C 9.7 °C 1017.2 hPa WSW 7.2 km/h 20.9 km/h 87% 0.0 mm 0 W/m2
07:06 11.8 °C 9.7 °C 1017.5 hPa WSW 5.0 km/h 13.4 km/h 87% 0.0 mm 0 W/m2
07:11 11.8 °C 9.7 °C 1017.5 hPa WSW 6.1 km/h 13.4 km/h 87% 0.0 mm 0 W/m2
07:16 11.7 °C 9.6 °C 1017.2 hPa West 5.0 km/h 13.4 km/h 87% 0.0 mm 0 W/m2
07:21 11.8 °C 9.7 °C 1017.5 hPa West 9.7 km/h 17.2 km/h 87% 0.0 mm 2 W/m2
07:26 11.8 °C 9.7 °C 1017.5 hPa WSW 5.0 km/h 17.2 km/h 87% 0.0 mm 3 W/m2
07:31 11.8 °C 9.6 °C 1017.5 hPa WSW 8.7 km/h 17.2 km/h 86% 0.0 mm 4 W/m2
07:36 11.9 °C 9.6 °C 1017.5 hPa WSW 8.7 km/h 17.2 km/h 86% 0.0 mm 5 W/m2
07:41 12.0 °C 9.4 °C 1017.5 hPa West 5.0 km/h 14.8 km/h 84% 0.0 mm 4 W/m2
07:46 12.0 °C 9.4 °C 1017.5 hPa WSW 9.7 km/h 17.2 km/h 84% 0.0 mm 6 W/m2
07:51 12.0 °C 9.4 °C 1017.8 hPa WSW 8.7 km/h 17.2 km/h 84% 0.0 mm 8 W/m2
08:10 12.0 °C 9.4 °C 1017.8 hPa West 3.5 km/h 14.8 km/h 84% 0.0 mm 19 W/m2
08:15 12.0 °C 9.2 °C 1018.2 hPa WSW 11.1 km/h 14.8 km/h 83% 0.0 mm 23 W/m2
08:20 12.1 °C 9.3 °C 1017.8 hPa WSW 7.2 km/h 13.4 km/h 83% 0.0 mm 18 W/m2
08:25 12.1 °C 9.1 °C 1018.2 hPa WSW 3.5 km/h 13.4 km/h 82% 0.0 mm 26 W/m2
08:30 12.0 °C 9.0 °C 1018.2 hPa West 5.0 km/h 15.8 km/h 82% 0.0 mm 39 W/m2
08:36 11.8 °C 9.4 °C 1018.2 hPa WSW 12.2 km/h 15.8 km/h 85% 0.0 mm 37 W/m2
08:41 11.5 °C 9.2 °C 1018.5 hPa SW 7.2 km/h 15.8 km/h 86% 0.0 mm 42 W/m2
08:46 11.4 °C 9.5 °C 1018.2 hPa SW 7.2 km/h 15.8 km/h 88% 0.3 mm 40 W/m2
08:51 11.3 °C 9.6 °C 1018.5 hPa WSW 9.7 km/h 13.4 km/h 89% 0.3 mm 37 W/m2
08:56 11.1 °C 9.7 °C 1018.2 hPa WSW 6.1 km/h 17.2 km/h 91% 0.3 mm 46 W/m2
09:01 11.1 °C 9.8 °C 1018.5 hPa WSW 2.6 km/h 17.2 km/h 92% 0.3 mm 50 W/m2
09:06 11.0 °C 9.8 °C 1018.5 hPa West 2.6 km/h 8.7 km/h 92% 0.3 mm 60 W/m2
09:11 11.0 °C 9.9 °C 1018.5 hPa WNW 3.5 km/h 6.1 km/h 93% 0.3 mm 52 W/m2
09:16 11.1 °C 10.0 °C 1018.8 hPa WNW 3.5 km/h 6.1 km/h 93% 0.3 mm 49 W/m2
09:21 11.1 °C 10.0 °C 1018.5 hPa NW 1.1 km/h 5.0 km/h 93% 0.3 mm 47 W/m2
09:39 11.2 °C 9.9 °C 1018.5 hPa WSW 3.5 km/h 9.7 km/h 92% 0.3 mm 57 W/m2
09:44 11.2 °C 9.9 °C 1018.5 hPa West 1.1 km/h 8.7 km/h 92% 0.0 mm 66 W/m2
09:49 11.3 °C 10.1 °C 1018.8 hPa WNW 5.0 km/h 8.7 km/h 92% 0.0 mm 82 W/m2
09:54 11.4 °C 10.2 °C 1018.8 hPa NW 2.6 km/h 7.2 km/h 92% 0.0 mm 85 W/m2
09:59 11.4 °C 10.2 °C 1018.8 hPa WNW 2.6 km/h 7.2 km/h 92% 0.0 mm 76 W/m2
10:04 11.5 °C 10.2 °C 1018.8 hPa NW 3.5 km/h 6.1 km/h 92% 0.0 mm 77 W/m2
10:09 11.6 °C 10.3 °C 1018.8 hPa NNW 1.1 km/h 6.1 km/h 92% 0.0 mm 86 W/m2
10:14 11.7 °C 10.4 °C 1018.8 hPa NNW 3.5 km/h 6.1 km/h 92% 0.0 mm 87 W/m2
10:19 11.7 °C 10.3 °C 1018.8 hPa NNW 5.0 km/h 7.2 km/h 91% 0.0 mm 85 W/m2
10:24 11.7 °C 10.3 °C 1018.8 hPa NW 3.5 km/h 7.2 km/h 91% 0.0 mm 96 W/m2
10:29 11.7 °C 10.3 °C 1018.8 hPa West 3.5 km/h 9.7 km/h 91% 0.0 mm 121 W/m2
10:34 11.7 °C 10.3 °C 1018.8 hPa West 3.5 km/h 9.7 km/h 91% 0.0 mm 96 W/m2
10:40 11.8 °C 10.4 °C 1018.8 hPa West 5.0 km/h 8.7 km/h 91% 0.0 mm 76 W/m2
10:45 11.8 °C 10.4 °C 1019.2 hPa SW 9.7 km/h 15.8 km/h 91% 0.0 mm 103 W/m2
10:50 11.7 °C 10.3 °C 1018.8 hPa WSW 11.1 km/h 15.8 km/h 91% 0.0 mm 113 W/m2
10:55 11.6 °C 10.3 °C 1018.8 hPa WSW 5.0 km/h 15.8 km/h 92% 0.0 mm 123 W/m2
11:00 11.5 °C 10.2 °C 1018.8 hPa SW 5.0 km/h 14.8 km/h 92% 0.3 mm 129 W/m2
11:06 11.7 °C 10.6 °C 1018.8 hPa SW 6.1 km/h 14.8 km/h 93% 0.3 mm 99 W/m2
11:11 11.6 °C 10.5 °C 1018.8 hPa WSW 5.0 km/h 8.7 km/h 93% 0.3 mm 84 W/m2
11:16 11.4 °C 10.2 °C 1018.8 hPa WSW 3.5 km/h 12.2 km/h 92% 0.3 mm 77 W/m2
11:21 11.3 °C 10.1 °C 1018.8 hPa West 3.5 km/h 12.2 km/h 92% 0.3 mm 43 W/m2
11:26 11.3 °C 10.2 °C 1018.5 hPa West 1.1 km/h 8.7 km/h 93% 0.3 mm 70 W/m2
11:31 11.3 °C 10.2 °C 1018.8 hPa West 3.5 km/h 11.1 km/h 93% 0.3 mm 68 W/m2
11:36 11.3 °C 10.2 °C 1018.8 hPa West 5.0 km/h 11.1 km/h 93% 0.3 mm 82 W/m2
11:41 11.4 °C 10.4 °C 1018.5 hPa West 3.5 km/h 8.7 km/h 94% 0.5 mm 116 W/m2
11:46 11.4 °C 10.4 °C 1018.5 hPa West 2.6 km/h 8.7 km/h 94% 0.5 mm 121 W/m2
11:51 11.4 °C 10.4 °C 1018.5 hPa WSW 7.2 km/h 13.4 km/h 94% 0.5 mm 136 W/m2
11:56 11.6 °C 10.7 °C 1018.5 hPa SW 1.1 km/h 13.4 km/h 94% 0.5 mm 119 W/m2
12:01 11.7 °C 10.8 °C 1018.2 hPa WSW 3.5 km/h 12.2 km/h 94% 0.3 mm 102 W/m2
12:06 11.7 °C 10.8 °C 1018.2 hPa West 6.1 km/h 8.7 km/h 94% 0.3 mm 96 W/m2
12:11 11.5 °C 10.6 °C 1018.2 hPa West 5.0 km/h 11.1 km/h 94% 0.3 mm 79 W/m2
12:16 11.5 °C 10.7 °C 1018.2 hPa WNW 8.7 km/h 11.1 km/h 95% 0.3 mm 82 W/m2
12:21 11.5 °C 10.7 °C 1018.2 hPa WNW 3.5 km/h 11.1 km/h 95% 0.3 mm 115 W/m2
12:26 11.6 °C 10.8 °C 1018.2 hPa West 5.0 km/h 11.1 km/h 95% 0.3 mm 82 W/m2
12:31 11.6 °C 10.8 °C 1018.2 hPa West 3.5 km/h 9.7 km/h 95% 0.5 mm 62 W/m2
12:36 11.6 °C 10.8 °C 1018.2 hPa WSW 1.1 km/h 9.7 km/h 95% 1.0 mm 72 W/m2
12:41 11.6 °C 10.8 °C 1017.8 hPa WSW 6.1 km/h 11.1 km/h 95% 0.5 mm 83 W/m2
12:46 11.7 °C 10.9 °C 1017.8 hPa WNW 7.2 km/h 11.1 km/h 95% 0.5 mm 100 W/m2
12:51 11.8 °C 11.2 °C 1017.8 hPa WNW 6.1 km/h 9.7 km/h 96% 1.0 mm 103 W/m2
12:56 11.6 °C 10.8 °C 1017.8 hPa West 6.1 km/h 14.8 km/h 95% 1.0 mm 92 W/m2
13:01 11.7 °C 11.1 °C 1017.5 hPa WSW 3.5 km/h 14.8 km/h 96% 1.0 mm 86 W/m2
13:06 11.7 °C 11.1 °C 1017.8 hPa WSW 5.0 km/h 14.8 km/h 96% 1.0 mm 99 W/m2
13:11 11.7 °C 11.1 °C 1017.5 hPa West 5.0 km/h 9.7 km/h 96% 1.3 mm 79 W/m2
13:16 11.7 °C 11.1 °C 1017.5 hPa WSW 5.0 km/h 9.7 km/h 96% 1.5 mm 107 W/m2
13:21 11.7 °C 11.1 °C 1017.8 hPa West 5.0 km/h 11.1 km/h 96% 1.5 mm 106 W/m2
13:26 11.8 °C 11.2 °C 1017.5 hPa West 5.0 km/h 12.2 km/h 96% 1.5 mm 75 W/m2
13:31 11.8 °C 11.2 °C 1017.5 hPa WSW 6.1 km/h 12.2 km/h 96% 1.3 mm 93 W/m2
13:36 11.9 °C 11.4 °C 1017.2 hPa WSW 6.1 km/h 13.4 km/h 97% 1.0 mm 83 W/m2
13:37 11.9 °C 11.4 °C 1017.5 hPa WSW 8.7 km/h 15.8 km/h 97% 1.0 mm 84 W/m2
13:42 11.9 °C 11.4 °C 1017.5 hPa WSW 11.1 km/h 17.2 km/h 97% 1.0 mm 77 W/m2
13:47 11.9 °C 11.4 °C 1017.5 hPa WSW 7.2 km/h 17.2 km/h 97% 1.0 mm 66 W/m2
13:52 11.9 °C 11.4 °C 1017.5 hPa West 11.1 km/h 18.3 km/h 97% 0.5 mm 108 W/m2
13:57 11.9 °C 11.4 °C 1017.5 hPa West 9.7 km/h 18.3 km/h 97% 0.5 mm 117 W/m2
14:02 12.1 °C 11.5 °C 1017.2 hPa West 13.4 km/h 18.3 km/h 96% 0.5 mm 123 W/m2
14:07 12.2 °C 11.6 °C 1017.2 hPa West 11.1 km/h 14.8 km/h 96% 0.5 mm 116 W/m2
14:12 12.2 °C 11.4 °C 1017.5 hPa West 5.0 km/h 14.8 km/h 95% 0.3 mm 123 W/m2
14:17 12.3 °C 11.5 °C 1017.2 hPa WSW 9.7 km/h 15.8 km/h 95% 0.0 mm 114 W/m2
14:22 12.4 °C 11.6 °C 1017.2 hPa WSW 6.1 km/h 15.8 km/h 95% 0.0 mm 107 W/m2
14:27 12.5 °C 11.7 °C 1017.2 hPa WSW 9.7 km/h 15.8 km/h 95% 0.0 mm 123 W/m2
14:32 12.7 °C 11.8 °C 1017.2 hPa WSW 7.2 km/h 15.8 km/h 94% 0.0 mm 153 W/m2
14:37 13.0 °C 12.1 °C 1017.2 hPa WSW 3.5 km/h 15.8 km/h 94% 0.0 mm 215 W/m2
14:42 13.4 °C 12.3 °C 1017.5 hPa WSW 3.5 km/h 12.2 km/h 93% 0.0 mm 128 W/m2
14:47 13.3 °C 12.1 °C 1017.5 hPa WSW 6.1 km/h 15.8 km/h 92% 0.0 mm 116 W/m2
14:52 13.0 °C 11.6 °C 1017.5 hPa WSW 6.1 km/h 15.8 km/h 91% 0.0 mm 96 W/m2
14:57 12.9 °C 11.6 °C 1017.5 hPa WSW 5.0 km/h 12.2 km/h 92% 0.0 mm 91 W/m2
15:02 12.7 °C 11.4 °C 1017.5 hPa WSW 6.1 km/h 15.8 km/h 92% 0.0 mm 80 W/m2
15:07 12.6 °C 11.3 °C 1017.5 hPa WSW 5.0 km/h 15.8 km/h 92% 0.0 mm 83 W/m2
15:12 12.7 °C 11.4 °C 1017.5 hPa West 5.0 km/h 12.2 km/h 92% 0.0 mm 86 W/m2
15:29 12.8 °C 11.6 °C 1017.5 hPa SW 7.2 km/h 15.8 km/h 92% 0.0 mm 53 W/m2
15:34 12.6 °C 11.2 °C 1017.5 hPa SW 2.6 km/h 15.8 km/h 91% 0.0 mm 43 W/m2
15:54 12.5 °C 11.2 °C 1017.5 hPa West 5.0 km/h 8.7 km/h 92% 0.0 mm 40 W/m2
15:59 12.5 °C 11.2 °C 1017.5 hPa West 6.1 km/h 12.2 km/h 92% 0.0 mm 36 W/m2
16:04 12.5 °C 11.2 °C 1017.5 hPa WSW 5.0 km/h 12.2 km/h 92% 0.0 mm 32 W/m2
16:09 12.5 °C 11.2 °C 1017.5 hPa WSW 3.5 km/h 9.7 km/h 92% 0.0 mm 29 W/m2
16:14 12.4 °C 11.2 °C 1017.5 hPa WSW 2.6 km/h 8.7 km/h 92% 0.0 mm 19 W/m2
16:19 12.4 °C 11.2 °C 1017.8 hPa West 2.6 km/h 7.2 km/h 92% 0.0 mm 19 W/m2
16:24 12.3 °C 11.1 °C 1017.5 hPa WSW 6.1 km/h 8.7 km/h 92% 0.0 mm 12 W/m2
16:29 12.3 °C 11.1 °C 1017.5 hPa WSW 1.1 km/h 8.7 km/h 92% 0.0 mm 5 W/m2
16:34 12.3 °C 11.1 °C 1017.5 hPa WSW 5.0 km/h 12.2 km/h 92% 0.0 mm 4 W/m2
16:54 12.1 °C 11.0 °C 1017.5 hPa WSW 5.0 km/h 7.2 km/h 93% 0.0 mm 1 W/m2
16:59 12.1 °C 11.0 °C 1017.5 hPa WSW 3.5 km/h 7.2 km/h 93% 0.0 mm 0 W/m2
17:04 12.1 °C 11.0 °C 1017.5 hPa WSW 2.6 km/h 6.1 km/h 93% 0.0 mm 0 W/m2
17:09 12.1 °C 11.0 °C 1017.5 hPa West 3.5 km/h 7.2 km/h 93% 0.0 mm 0 W/m2
17:28 12.0 °C 10.7 °C 1017.5 hPa SSW 5.0 km/h 12.2 km/h 92% 0.0 mm 0 W/m2
17:33 12.1 °C 10.7 °C 1017.5 hPa SSW 5.0 km/h 11.1 km/h 91% 0.0 mm 0 W/m2
17:38 12.2 °C 10.8 °C 1017.5 hPa SSW 6.1 km/h 11.1 km/h 91% 0.0 mm 0 W/m2
17:43 12.2 °C 10.6 °C 1017.5 hPa SSW 3.5 km/h 13.4 km/h 90% 0.0 mm 0 W/m2
17:48 12.2 °C 10.6 °C 1017.8 hPa SW 7.2 km/h 13.4 km/h 90% 0.0 mm 0 W/m2
17:53 12.1 °C 10.7 °C 1017.8 hPa WSW 6.1 km/h 9.7 km/h 91% 0.0 mm 0 W/m2
17:58 12.1 °C 10.7 °C 1017.8 hPa WSW 2.6 km/h 9.7 km/h 91% 0.0 mm 0 W/m2
18:03 12.0 °C 10.6 °C 1017.8 hPa WSW 2.6 km/h 7.2 km/h 91% 0.0 mm 0 W/m2
18:08 12.0 °C 10.6 °C 1017.8 hPa WSW 1.1 km/h 8.7 km/h 91% 0.0 mm 0 W/m2
18:13 11.9 °C 10.7 °C 1017.8 hPa SW 2.6 km/h 8.7 km/h 92% 0.0 mm 0 W/m2
18:18 11.9 °C 10.7 °C 1017.8 hPa SW 2.6 km/h 3.5 km/h 92% 0.0 mm 0 W/m2
18:23 11.9 °C 10.7 °C 1017.8 hPa SW 2.6 km/h 3.5 km/h 92% 0.0 mm 0 W/m2
18:28 11.8 °C 10.6 °C 1017.8 hPa SW 1.1 km/h 3.5 km/h 92% 0.0 mm 0 W/m2
18:33 11.8 °C 10.6 °C 1018.2 hPa SW 1.1 km/h 3.5 km/h 92% 0.0 mm 0 W/m2
18:38 11.7 °C 10.4 °C 1018.2 hPa WSW 2.6 km/h 3.5 km/h 92% 0.0 mm 0 W/m2
18:43 11.7 °C 10.6 °C 1018.2 hPa WSW 2.6 km/h 3.5 km/h 93% 0.0 mm 0 W/m2
18:48 11.7 °C 10.6 °C 1018.2 hPa SW 3.5 km/h 6.1 km/h 93% 0.0 mm 0 W/m2
18:53 11.7 °C 10.6 °C 1018.2 hPa SW 3.5 km/h 7.2 km/h 93% 0.0 mm 0 W/m2
18:58 11.7 °C 10.8 °C 1018.2 hPa Calm   7.2 km/h 94% 0.0 mm 0 W/m2
19:03 11.7 °C 10.8 °C 1018.5 hPa Calm   6.1 km/h 94% 0.0 mm 0 W/m2
19:08 11.7 °C 10.8 °C 1018.2 hPa Calm   2.6 km/h 94% 0.0 mm 0 W/m2
19:13 11.7 °C 10.8 °C 1018.5 hPa NW 1.1 km/h 2.6 km/h 94% 0.0 mm 0 W/m2
19:18 11.7 °C 10.8 °C 1018.5 hPa NW 1.1 km/h 3.5 km/h 94% 0.0 mm 0 W/m2
19:23 11.6 °C 10.7 °C 1018.5 hPa NNW 1.1 km/h 3.5 km/h 94% 0.0 mm 0 W/m2
19:28 11.6 °C 10.7 °C 1018.5 hPa North 1.1 km/h 2.6 km/h 94% 0.0 mm 0 W/m2
19:33 11.5 °C 10.6 °C 1018.5 hPa Calm   2.6 km/h 94% 0.0 mm 0 W/m2
19:38 11.4 °C 10.4 °C 1018.2 hPa North 1.1 km/h 2.6 km/h 94% 0.0 mm 0 W/m2
19:43 11.3 °C 10.4 °C 1018.5 hPa Calm   2.6 km/h 94% 0.0 mm 0 W/m2
19:48 11.1 °C 10.2 °C 1018.5 hPa Calm   2.6 km/h 94% 0.0 mm 0 W/m2
19:53 11.0 °C 10.1 °C 1018.2 hPa Calm   1.1 km/h 94% 0.0 mm 0 W/m2
19:58 10.9 °C 10.1 °C 1018.2 hPa NE 1.1 km/h 2.6 km/h 95% 0.0 mm 0 W/m2
20:03 10.9 °C 10.3 °C 1018.5 hPa NE 1.1 km/h 2.6 km/h 96% 0.0 mm 0 W/m2
20:08 10.9 °C 10.3 °C 1018.2 hPa NNE 3.5 km/h 5.0 km/h 96% 0.0 mm 0 W/m2
20:13 10.9 °C 10.3 °C 1018.2 hPa NNE 2.6 km/h 5.0 km/h 96% 0.0 mm 0 W/m2
20:18 10.8 °C 10.2 °C 1018.2 hPa North 1.1 km/h 5.0 km/h 96% 0.0 mm 0 W/m2
20:24 10.8 °C 10.3 °C 1018.2 hPa NNE 2.6 km/h 3.5 km/h 97% 0.0 mm 0 W/m2
20:29 10.8 °C 10.3 °C 1018.2 hPa NNE 1.1 km/h 3.5 km/h 97% 0.0 mm 0 W/m2
20:34 10.8 °C 10.3 °C 1018.5 hPa North 1.1 km/h 3.5 km/h 97% 0.0 mm 0 W/m2
20:40 10.8 °C 10.3 °C 1018.5 hPa North 2.6 km/h 3.5 km/h 97% 0.0 mm 0 W/m2
20:46 10.7 °C 10.4 °C 1018.2 hPa North 3.5 km/h 6.1 km/h 98% 0.0 mm 0 W/m2
20:51 10.7 °C 10.4 °C 1018.2 hPa North 1.1 km/h 6.1 km/h 98% 0.0 mm 0 W/m2
20:56 10.7 °C 10.4 °C 1018.5 hPa North 1.1 km/h 5.0 km/h 98% 0.0 mm 0 W/m2
21:01 10.7 °C 10.4 °C 1018.2 hPa North 1.1 km/h 3.5 km/h 98% 0.0 mm 0 W/m2
21:06 10.7 °C 10.4 °C 1018.2 hPa Calm   3.5 km/h 98% 0.0 mm 0 W/m2
21:11 10.7 °C 10.4 °C 1018.5 hPa North 1.1 km/h 3.5 km/h 98% 0.0 mm 0 W/m2
21:16 10.7 °C 10.6 °C 1018.5 hPa North 1.1 km/h 3.5 km/h 99% 0.0 mm 0 W/m2
21:21 10.7 °C 10.6 °C 1018.5 hPa North 2.6 km/h 3.5 km/h 99% 0.0 mm 0 W/m2
21:26 10.7 °C 10.6 °C 1018.5 hPa North 2.6 km/h 5.0 km/h 99% 0.0 mm 0 W/m2
21:31 10.7 °C 10.6 °C 1018.8 hPa North 2.6 km/h 5.0 km/h 99% 0.0 mm 0 W/m2
21:36 10.7 °C 10.6 °C 1018.8 hPa North 1.1 km/h 5.0 km/h 99% 0.0 mm 0 W/m2
21:56 10.6 °C 10.4 °C 1018.8 hPa North 1.1 km/h 3.5 km/h 99% 0.0 mm 0 W/m2
22:01 10.6 °C 10.4 °C 1018.5 hPa North 1.1 km/h 3.5 km/h 99% 0.0 mm 0 W/m2
22:06 10.6 °C 10.4 °C 1018.5 hPa North 2.6 km/h 5.0 km/h 99% 0.0 mm 0 W/m2
22:11 10.6 °C 10.4 °C 1018.8 hPa North 3.5 km/h 5.0 km/h 99% 0.0 mm 0 W/m2
22:16 10.5 °C 10.3 °C 1018.5 hPa North 2.6 km/h 5.0 km/h 99% 0.0 mm 0 W/m2
22:21 10.5 °C 10.3 °C 1018.5 hPa North 2.6 km/h 3.5 km/h 99% 0.0 mm 0 W/m2
22:26 10.4 °C 10.3 °C 1018.5 hPa NNW 1.1 km/h 3.5 km/h 99% 0.0 mm 0 W/m2
22:31 10.4 °C 10.3 °C 1018.5 hPa NW 2.6 km/h 5.0 km/h 99% 0.0 mm 0 W/m2
22:36 10.3 °C 10.2 °C 1018.5 hPa NNW 2.6 km/h 6.1 km/h 99% 0.0 mm 0 W/m2
22:41 10.3 °C 10.2 °C 1018.5 hPa NNW 2.6 km/h 6.1 km/h 99% 0.0 mm 0 W/m2
22:46 10.3 °C 10.2 °C 1018.5 hPa NNW 3.5 km/h 6.1 km/h 99% 0.0 mm 0 W/m2
22:51 10.3 °C 10.2 °C 1018.5 hPa NNW 2.6 km/h 7.2 km/h 99% 0.0 mm 0 W/m2
22:56 10.2 °C 10.1 °C 1018.5 hPa NW 2.6 km/h 7.2 km/h 99% 0.0 mm 0 W/m2
23:01 10.2 °C 10.1 °C 1018.5 hPa NW 1.1 km/h 5.0 km/h 99% 0.0 mm 0 W/m2
23:07 10.2 °C 10.1 °C 1018.5 hPa NW 2.6 km/h 3.5 km/h 99% 0.0 mm 0 W/m2
23:12 10.2 °C 10.1 °C 1018.5 hPa NNW 3.5 km/h 5.0 km/h 99% 0.0 mm 0 W/m2
23:17 10.2 °C 10.1 °C 1018.5 hPa NNW 2.6 km/h 5.0 km/h 99% 0.0 mm 0 W/m2
23:22 10.1 °C 9.9 °C 1018.5 hPa NNW 2.6 km/h 5.0 km/h 99% 0.0 mm 0 W/m2
23:41 9.8 °C 9.7 °C 1018.5 hPa North 1.1 km/h 3.5 km/h 99% 0.0 mm 0 W/m2
23:46 9.8 °C 9.7 °C 1018.2 hPa North 1.1 km/h 3.5 km/h 99% 0.0 mm 0 W/m2
23:51 9.8 °C 9.7 °C 1018.2 hPa North 1.1 km/h 2.6 km/h 99% 0.0 mm 0 W/m2
23:56 9.8 °C 9.7 °C 1018.2 hPa NNW 1.1 km/h 3.5 km/h 99% 0.0 mm 0 W/m2
Northern Hawkes Bay. New Zealand Historic Data
Compliments of Weather Underground - 2 mb